Time;durP1;ratioP1;P1;durP2;ratioP2;P2;SDS_P1;SDS_P2;PMS_P1;PMS_P2;Temp;Humidity;BMP_temperature;BMP_pressure;BME280_temperature;BME280_humidity;BME280_pressure;Samples;Min_cycle;Max_cycle;Signal;HPM_P1;HPM_P2
2021/01/20 00:01:33;;;;;;;96.97;72.40;;;16.80;63.50;;;;;;4946290;28;20035;-61
2021/01/20 00:03:59;;;;;;;95.65;69.97;;;16.80;63.60;;;;;;4956809;28;20031;-62
2021/01/20 00:06:24;;;;;;;88.72;64.30;;;16.80;64.30;;;;;;4965686;28;20030;-62
2021/01/20 00:08:50;;;;;;;170.10;133.30;;;16.80;63.50;;;;;;4956455;28;20528;-62
2021/01/20 00:11:15;;;;;;;116.03;90.07;;;16.80;63.50;;;;;;4953085;28;20029;-62
2021/01/20 00:13:41;;;;;;;100.43;76.78;;;16.90;63.40;;;;;;4951570;28;20034;-62
2021/01/20 00:16:06;;;;;;;92.15;68.15;;;16.80;63.40;;;;;;4964848;28;20027;-62
2021/01/20 00:18:32;;;;;;;118.50;88.75;;;16.80;63.40;;;;;;4967842;28;20031;-63
2021/01/20 00:20:57;;;;;;;97.75;73.63;;;16.80;63.20;;;;;;4956864;28;20035;-60
2021/01/20 00:23:23;;;;;;;83.05;63.80;;;16.80;63.00;;;;;;4940858;28;20427;-61
2021/01/20 00:25:48;;;;;;;117.75;97.05;;;16.80;63.00;;;;;;4971237;28;20109;-62
2021/01/20 00:28:14;;;;;;;114.88;93.00;;;16.70;63.60;;;;;;4959639;28;20107;-63
2021/01/20 00:30:39;;;;;;;85.43;67.75;;;16.70;63.10;;;;;;4941606;28;20524;-61
2021/01/20 00:33:05;;;;;;;71.50;57.10;;;16.70;63.00;;;;;;4968743;28;20027;-62
2021/01/20 00:35:30;;;;;;;73.15;56.03;;;16.80;62.70;;;;;;4954652;28;20469;-61
2021/01/20 00:37:56;;;;;;;75.05;55.90;;;16.70;63.10;;;;;;4964293;28;20069;-63
2021/01/20 00:40:21;;;;;;;66.72;51.55;;;16.70;63.10;;;;;;4959105;28;20433;-62
2021/01/20 00:42:47;;;;;;;64.47;50.00;;;16.70;62.90;;;;;;4940317;28;20023;-61
2021/01/20 00:45:13;;;;;;;53.47;43.05;;;16.70;62.80;;;;;;4972525;28;20050;-62
2021/01/20 00:47:38;;;;;;;65.75;50.42;;;16.70;62.10;;;;;;4967199;28;20520;-64
2021/01/20 00:50:05;;;;;;;61.60;48.05;;;16.60;62.90;;;;;;4982207;28;20392;-62
2021/01/20 00:52:31;;;;;;;73.28;56.13;;;16.60;63.10;;;;;;4991649;28;20042;-62
2021/01/20 00:54:56;;;;;;;84.60;63.78;;;16.60;62.80;;;;;;4966718;28;20031;-63
2021/01/20 01:00:44;;;;;;;229.57;163.32;;;16.60;63.00;;;;;;4958987;28;20416;-63
2021/01/20 01:03:38;;;;;;;186.13;135.52;;;16.50;62.90;;;;;;4954667;29;20027;-61
2021/01/20 01:06:04;;;;;;;110.22;82.65;;;16.60;62.80;;;;;;4963131;28;20523;-61
2021/01/20 01:08:29;;;;;;;120.28;87.65;;;16.60;62.70;;;;;;4966056;28;20408;-62
2021/01/20 01:10:55;;;;;;;103.63;74.22;;;16.60;62.50;;;;;;4954369;28;20066;-65
2021/01/20 01:13:21;;;;;;;109.40;82.72;;;16.60;62.60;;;;;;4962745;28;20042;-65
2021/01/20 01:15:47;;;;;;;92.72;70.70;;;16.60;62.60;;;;;;4956578;28;20109;-63
2021/01/20 01:18:13;;;;;;;70.68;53.25;;;16.60;62.60;;;;;;4971476;28;20118;-63
2021/01/20 01:20:38;;;;;;;71.00;55.28;;;16.50;62.50;;;;;;4969177;28;20531;-61
2021/01/20 01:23:05;;;;;;;81.53;65.50;;;16.50;62.40;;;;;;4969494;28;20447;-60
2021/01/20 01:25:30;;;;;;;80.22;62.72;;;16.60;62.70;;;;;;4956919;28;20492;-61
2021/01/20 01:27:56;;;;;;;93.32;78.28;;;16.50;62.50;;;;;;4947436;28;20023;-61
2021/01/20 01:30:22;;;;;;;77.20;60.08;;;16.50;62.60;;;;;;4958127;28;20058;-61
2021/01/20 01:32:48;;;;;;;60.40;47.33;;;16.60;62.50;;;;;;4954567;28;20018;-61
2021/01/20 01:35:13;;;;;;;62.88;49.63;;;16.60;62.50;;;;;;4945062;28;20037;-64
2021/01/20 01:37:39;;;;;;;56.58;46.95;;;16.50;62.30;;;;;;4957129;28;20033;-61
2021/01/20 01:40:06;;;;;;;53.47;42.17;;;16.50;62.40;;;;;;4939668;29;20035;-62
2021/01/20 01:42:31;;;;;;;51.15;39.10;;;16.50;62.40;;;;;;4955531;28;20123;-65
2021/01/20 01:44:57;;;;;;;76.75;60.72;;;16.50;62.30;;;;;;4969231;28;20130;-60
2021/01/20 01:47:23;;;;;;;82.38;67.90;;;16.40;62.10;;;;;;4960217;28;20031;-62
2021/01/20 01:49:49;;;;;;;56.00;44.15;;;16.40;62.30;;;;;;4973523;28;20030;-61
2021/01/20 01:52:16;;;;;;;146.35;122.88;;;16.40;62.30;;;;;;4948971;29;20402;-61
2021/01/20 01:54:44;;;;;;;90.45;76.57;;;16.50;62.00;;;;;;4958015;28;20051;-63
2021/01/20 01:57:10;;;;;;;67.40;57.42;;;16.40;62.20;;;;;;4960799;28;20027;-64
2021/01/20 01:59:35;;;;;;;59.22;50.30;;;16.50;62.00;;;;;;4970234;28;20480;-61
2021/01/20 02:02:01;;;;;;;56.58;45.72;;;16.40;62.30;;;;;;4950470;28;20067;-62
2021/01/20 02:04:26;;;;;;;48.70;39.75;;;16.30;62.30;;;;;;4963201;28;20023;-62
2021/01/20 02:06:54;;;;;;;46.33;37.75;;;16.50;62.10;;;;;;4963690;28;20035;-63
2021/01/20 02:09:21;;;;;;;44.60;37.25;;;16.50;62.00;;;;;;4954049;28;20079;-62
2021/01/20 02:12:13;;;;;;;45.20;36.28;;;16.40;62.10;;;;;;4973043;28;20390;-61
2021/01/20 02:15:15;;;;;;;42.92;34.03;;;16.40;62.00;;;;;;4954795;28;20066;-62
2021/01/20 02:17:44;;;;;;;39.17;31.83;;;16.50;61.80;;;;;;4946268;28;20097;-64
2021/01/20 02:20:29;;;;;;;38.15;30.80;;;16.40;61.80;;;;;;4972402;28;20123;-62
2021/01/20 02:22:57;;;;;;;36.50;29.60;;;16.40;61.80;;;;;;4959923;28;20118;-63
2021/01/20 02:26:01;;;;;;;38.22;30.33;;;16.50;62.00;;;;;;4939855;29;20353;-63
2021/01/20 02:28:52;;;;;;;35.22;27.77;;;16.40;61.80;;;;;;4962094;28;20039;-61
2021/01/20 02:31:18;;;;;;;;;;;16.40;61.80;;;;;;4968227;28;20029;-63
2021/01/20 02:33:46;;;;;;;31.52;24.77;;;16.40;61.90;;;;;;4969348;28;19906;-62
2021/01/20 02:36:13;;;;;;;29.40;22.63;;;16.30;61.80;;;;;;4954544;28;20437;-62
2021/01/20 02:38:40;;;;;;;30.70;24.10;;;16.30;61.70;;;;;;4953322;29;20115;-61
2021/01/20 02:41:06;;;;;;;32.58;24.58;;;16.30;61.80;;;;;;4946325;28;20031;-61
2021/01/20 02:43:32;;;;;;;31.80;24.63;;;16.30;61.80;;;;;;4947040;28;20480;-62
2021/01/20 02:45:57;;;;;;;30.55;22.90;;;16.30;62.20;;;;;;4954909;28;20090;-61
2021/01/20 02:48:23;;;;;;;30.73;22.92;;;16.30;62.10;;;;;;4966829;28;20111;-62
2021/01/20 02:50:49;;;;;;;26.77;21.63;;;16.30;61.90;;;;;;4953147;29;20031;-64
2021/01/20 02:53:21;;;;;;;27.52;21.70;;;16.30;62.00;;;;;;4954028;28;20046;-62
2021/01/20 02:56:01;;;;;;;28.38;21.13;;;16.30;62.00;;;;;;4964969;28;20063;-61
2021/01/20 02:58:30;;;;;;;27.40;20.70;;;16.30;62.00;;;;;;4943876;28;20121;-64
2021/01/20 03:00:58;;;;;;;25.98;19.25;;;16.30;62.10;;;;;;4962380;28;20061;-61
2021/01/20 03:03:25;;;;;;;25.85;20.02;;;16.30;62.10;;;;;;4955071;28;20030;-61
2021/01/20 03:05:52;;;;;;;23.52;18.33;;;16.30;62.00;;;;;;4954129;28;20027;-61
2021/01/20 03:08:18;;;;;;;26.40;18.67;;;16.20;62.00;;;;;;4963952;28;20035;-61
2021/01/20 03:10:44;;;;;;;25.15;18.30;;;16.30;62.00;;;;;;4952999;29;20027;-62
2021/01/20 03:13:09;;;;;;;23.73;17.50;;;16.30;62.00;;;;;;4952337;29;20034;-61
2021/01/20 03:15:38;;;;;;;23.50;17.45;;;16.30;61.90;;;;;;4958874;28;20027;-62
2021/01/20 03:18:05;;;;;;;23.15;17.20;;;16.30;62.00;;;;;;4969918;28;20042;-62
2021/01/20 03:20:31;;;;;;;22.20;16.77;;;16.30;61.90;;;;;;4941421;29;20540;-63
2021/01/20 03:22:56;;;;;;;22.40;16.83;;;16.20;61.70;;;;;;4968365;28;20042;-61
2021/01/20 03:25:22;;;;;;;21.58;15.70;;;16.20;61.80;;;;;;4939504;29;20034;-62
2021/01/20 03:27:48;;;;;;;23.58;15.70;;;16.20;62.00;;;;;;4937794;28;20106;-61
2021/01/20 03:30:15;;;;;;;20.30;15.65;;;16.20;61.80;;;;;;4968178;28;20018;-61
2021/01/20 03:32:40;;;;;;;20.98;15.30;;;16.20;61.90;;;;;;4935194;29;20042;-61
2021/01/20 03:35:07;;;;;;;20.70;14.98;;;16.20;61.90;;;;;;4963517;28;20027;-64
2021/01/20 03:37:32;;;;;;;203.65;105.47;;;16.20;61.30;;;;;;4974505;28;20027;-62
2021/01/20 03:39:58;;;;;;;73.25;42.47;;;16.20;61.90;;;;;;4965261;28;20035;-61
2021/01/20 03:42:23;;;;;;;120.45;69.78;;;16.20;61.80;;;;;;4952814;28;20035;-64
2021/01/20 03:44:49;;;;;;;79.80;48.45;;;16.20;61.80;;;;;;4964965;28;20070;-61
2021/01/20 03:47:14;;;;;;;49.13;32.65;;;16.20;61.70;;;;;;4971043;28;20059;-60
2021/01/20 03:49:40;;;;;;;42.42;27.80;;;16.20;61.30;;;;;;4956314;28;20456;-61
2021/01/20 03:52:05;;;;;;;38.72;25.85;;;16.20;61.70;;;;;;4952706;28;20444;-63
2021/01/20 03:54:31;;;;;;;117.72;77.43;;;16.10;61.50;;;;;;4970210;28;20029;-61
2021/01/20 03:56:56;;;;;;;68.82;46.63;;;16.10;61.70;;;;;;4972215;28;20472;-61
2021/01/20 03:59:22;;;;;;;43.78;30.27;;;16.10;61.70;;;;;;4961902;28;20032;-62
2021/01/20 04:01:47;;;;;;;35.20;25.35;;;16.10;61.50;;;;;;4957232;28;20023;-61
2021/01/20 04:04:13;;;;;;;37.03;25.05;;;16.10;61.60;;;;;;4952677;29;20043;-61
2021/01/20 04:06:39;;;;;;;55.55;45.03;;;16.10;61.70;;;;;;4952753;29;20501;-62
2021/01/20 04:09:05;;;;;;;35.55;26.85;;;16.10;61.70;;;;;;4956624;28;20396;-63
2021/01/20 04:11:31;;;;;;;30.42;21.90;;;16.10;61.60;;;;;;4952216;29;20023;-59
2021/01/20 04:13:57;;;;;;;27.70;19.90;;;16.00;61.70;;;;;;4944850;28;20536;-62
2021/01/20 04:16:22;;;;;;;27.08;19.50;;;16.00;61.50;;;;;;4950831;28;20031;-61
2021/01/20 04:18:48;;;;;;;31.73;23.23;;;16.10;61.60;;;;;;4960933;28;20209;-63
2021/01/20 04:21:13;;;;;;;31.15;21.48;;;16.00;61.40;;;;;;4955726;29;20062;-62
2021/01/20 04:23:39;;;;;;;27.73;18.77;;;16.10;61.50;;;;;;4969214;28;20443;-61
2021/01/20 04:26:06;;;;;;;25.20;18.13;;;16.00;61.40;;;;;;4938442;29;20031;-61
2021/01/20 04:28:32;;;;;;;25.85;18.55;;;16.10;61.40;;;;;;4970364;28;20034;-64
2021/01/20 04:30:58;;;;;;;23.50;16.95;;;16.10;61.40;;;;;;4972275;28;20034;-61
2021/01/20 04:33:24;;;;;;;22.73;16.52;;;16.10;61.40;;;;;;4968662;28;20498;-61
2021/01/20 04:35:50;;;;;;;22.40;15.95;;;16.10;61.30;;;;;;4974935;28;20118;-62
2021/01/20 04:38:15;;;;;;;21.77;14.95;;;16.00;61.40;;;;;;4974834;28;20035;-61
2021/01/20 04:40:41;;;;;;;22.10;15.23;;;16.10;61.40;;;;;;4971611;28;20369;-63
2021/01/20 04:43:06;;;;;;;45.00;15.27;;;16.10;61.30;;;;;;4964271;28;20090;-61
2021/01/20 04:45:32;;;;;;;21.88;14.93;;;16.10;61.20;;;;;;4974621;28;20038;-63
2021/01/20 04:47:59;;;;;;;18.70;13.52;;;16.10;61.00;;;;;;4972076;28;20031;-60
2021/01/20 04:50:30;;;;;;;21.92;14.32;;;16.00;61.20;;;;;;4956433;28;20039;-62
2021/01/20 04:53:05;;;;;;;19.65;13.52;;;16.10;61.30;;;;;;4955392;28;20066;-63
2021/01/20 04:55:32;;;;;;;18.83;13.18;;;16.10;61.00;;;;;;4968953;28;20041;-61
2021/01/20 04:57:58;;;;;;;17.92;12.75;;;16.00;61.40;;;;;;4938048;28;20027;-61
2021/01/20 05:00:25;;;;;;;18.92;12.45;;;16.10;61.50;;;;;;4964355;28;20067;-64
2021/01/20 05:02:53;;;;;;;19.00;12.35;;;16.10;61.30;;;;;;4973343;28;20058;-62
2021/01/20 05:05:18;;;;;;;19.23;12.45;;;16.10;61.00;;;;;;4974015;28;20029;-60
2021/01/20 05:07:44;;;;;;;17.35;10.75;;;16.00;61.10;;;;;;4973840;28;20038;-61
2021/01/20 05:10:10;;;;;;;18.58;11.43;;;16.00;61.20;;;;;;4964376;28;20507;-62
2021/01/20 05:12:39;;;;;;;17.90;11.30;;;16.00;61.10;;;;;;4954753;29;20110;-63
2021/01/20 05:15:07;;;;;;;17.58;11.23;;;16.00;61.10;;;;;;4945689;28;20023;-62
2021/01/20 05:17:37;;;;;;;17.23;10.63;;;16.00;61.10;;;;;;4973618;28;20027;-62
2021/01/20 05:20:04;;;;;;;15.48;10.40;;;16.10;61.10;;;;;;4963356;28;20035;-64
2021/01/20 05:22:30;;;;;;;15.10;9.82;;;16.10;61.30;;;;;;4959309;28;20034;-62
2021/01/20 05:24:58;;;;;;;16.10;10.07;;;16.10;61.20;;;;;;4952820;28;20098;-61
2021/01/20 05:27:31;;;;;;;15.18;9.43;;;16.00;61.00;;;;;;4933044;28;20419;-63
2021/01/20 05:30:04;;;;;;;16.58;9.82;;;16.00;61.30;;;;;;4938932;28;20118;-62
2021/01/20 05:32:30;;;;;;;15.50;8.90;;;15.90;61.80;;;;;;4963831;28;20053;-65
2021/01/20 05:35:03;;;;;;;14.82;8.68;;;16.00;61.70;;;;;;4960326;28;20117;-61
2021/01/20 05:37:29;;;;;;;19.75;8.75;;;16.00;61.90;;;;;;4982090;28;20365;-61
2021/01/20 05:40:09;;;;;;;13.88;8.68;;;16.10;61.80;;;;;;4956328;28;20038;-66
2021/01/20 05:42:49;;;;;;;14.48;8.23;;;16.20;61.60;;;;;;4966479;28;20074;-66
2021/01/20 05:45:17;;;;;;;16.42;8.23;;;16.20;61.80;;;;;;4951975;28;20093;-64
2021/01/20 05:48:05;;;;;;;22.65;16.80;;;16.20;62.00;;;;;;4974003;28;20045;-62
2021/01/20 05:50:32;;;;;;;22.25;17.30;;;16.30;62.00;;;;;;4950271;28;20101;-62
2021/01/20 05:53:09;;;;;;;18.70;12.15;;;16.40;62.70;;;;;;4951143;28;20023;-60
2021/01/20 05:55:36;;;;;;;15.55;10.38;;;16.40;62.40;;;;;;4954695;28;20486;-61
2021/01/20 05:58:02;;;;;;;17.17;11.63;;;16.40;62.80;;;;;;4945477;28;20035;-62
2021/01/20 06:00:28;;;;;;;17.33;10.95;;;16.50;61.70;;;;;;4958357;28;20090;-62
2021/01/20 06:02:55;;;;;;;15.93;10.25;;;16.50;61.80;;;;;;4970488;28;20117;-61
2021/01/20 06:05:22;;;;;;;15.35;9.38;;;16.60;61.70;;;;;;4950002;28;20042;-60
2021/01/20 06:07:50;;;;;;;14.32;9.48;;;16.60;61.70;;;;;;4955734;28;20041;-62
2021/01/20 06:10:15;;;;;;;15.80;8.43;;;16.60;61.60;;;;;;4962366;28;20031;-61
2021/01/20 06:12:41;;;;;;;14.90;7.63;;;16.70;61.00;;;;;;4947831;29;20086;-63
2021/01/20 06:15:07;;;;;;;18.40;8.50;;;16.80;61.20;;;;;;4950607;28;20026;-62
2021/01/20 06:17:40;;;;;;;14.77;7.55;;;16.80;61.50;;;;;;4965980;28;20031;-62
2021/01/20 06:20:08;;;;;;;16.75;7.80;;;16.80;61.50;;;;;;4960828;28;20058;-61
2021/01/20 06:22:39;;;;;;;12.95;7.35;;;16.90;61.60;;;;;;4932156;28;20102;-62
2021/01/20 06:25:11;;;;;;;14.07;7.38;;;16.90;62.00;;;;;;4966443;28;20121;-62
2021/01/20 06:31:04;;;;;;;15.07;7.40;;;17.00;61.50;;;;;;4946853;28;20041;-63
2021/01/20 06:33:30;;;;;;;15.65;6.80;;;16.90;62.00;;;;;;4954734;28;20018;-62
2021/01/20 06:35:55;;;;;;;12.98;6.53;;;17.00;62.10;;;;;;4953716;28;20499;-62
2021/01/20 06:38:27;;;;;;;17.35;6.82;;;17.00;62.20;;;;;;4956573;28;20022;-64
2021/01/20 06:40:56;;;;;;;;;;;17.00;61.30;;;;;;4948741;28;20031;-64
2021/01/20 06:43:47;;;;;;;14.65;6.18;;;17.00;61.90;;;;;;4955093;28;19910;-63
2021/01/20 06:46:25;;;;;;;11.50;5.50;;;17.00;61.10;;;;;;4940916;28;20117;-63
2021/01/20 06:48:54;;;;;;;12.38;5.72;;;17.10;61.10;;;;;;4964987;28;20018;-63
2021/01/20 06:51:24;;;;;;;13.38;5.70;;;17.00;61.00;;;;;;4932614;28;20370;-62
2021/01/20 06:53:59;;;;;;;12.27;5.65;;;17.00;60.90;;;;;;4947313;29;20039;-62
2021/01/20 06:56:36;;;;;;;11.18;5.88;;;17.00;60.90;;;;;;4942903;28;20057;-62
2021/01/20 06:59:21;;;;;;;12.02;5.07;;;16.90;60.70;;;;;;4985822;28;20053;-62
2021/01/20 07:02:02;;;;;;;11.73;4.88;;;16.90;60.70;;;;;;4967181;28;20034;-65
2021/01/20 07:04:37;;;;;;;8.45;4.50;;;16.90;60.20;;;;;;4973518;28;20038;-63
2021/01/20 07:07:35;;;;;;;11.35;5.15;;;16.70;59.50;;;;;;4947915;28;20039;-62
2021/01/20 07:10:01;;;;;;;13.18;4.57;;;16.80;60.90;;;;;;4963935;28;20101;-64
2021/01/20 07:12:26;;;;;;;23.40;10.40;;;16.70;61.60;;;;;;4961707;28;20122;-62
2021/01/20 07:14:52;;;;;;;17.85;6.57;;;16.60;61.30;;;;;;4961554;28;20162;-63
2021/01/20 07:17:19;;;;;;;13.40;5.00;;;16.70;62.20;;;;;;4957098;28;20783;-62
2021/01/20 07:19:45;;;;;;;13.88;4.85;;;16.60;61.00;;;;;;4974607;28;20038;-62
2021/01/20 07:22:12;;;;;;;10.43;4.30;;;16.50;60.10;;;;;;4982852;28;20023;-62
2021/01/20 07:24:38;;;;;;;10.57;4.35;;;16.40;60.80;;;;;;4984274;28;20033;-66
2021/01/20 07:27:06;;;;;;;19.35;9.07;;;16.40;61.00;;;;;;4984699;28;20022;-63
2021/01/20 07:29:32;;;;;;;19.42;8.25;;;16.30;60.90;;;;;;4984746;28;20124;-65
2021/01/20 07:31:59;;;;;;;12.27;5.50;;;16.40;61.30;;;;;;4984356;28;20053;-62
2021/01/20 07:34:44;;;;;;;11.38;4.70;;;16.30;61.10;;;;;;4966882;28;20070;-64
2021/01/20 07:37:16;;;;;;;9.48;4.43;;;16.30;61.00;;;;;;4985308;28;20073;-61
2021/01/20 07:39:43;;;;;;;20.05;10.60;;;16.30;60.40;;;;;;4968182;28;20034;-61
2021/01/20 07:42:09;;;;;;;13.55;6.45;;;16.30;61.30;;;;;;4967491;28;20511;-60
2021/01/20 07:44:44;;;;;;;12.88;5.15;;;16.30;61.30;;;;;;4967746;28;20033;-62
2021/01/20 07:47:10;;;;;;;19.05;9.65;;;16.40;61.50;;;;;;4965688;28;20031;-64
2021/01/20 07:49:37;;;;;;;12.40;6.68;;;16.30;61.10;;;;;;4966112;28;20038;-63
2021/01/20 07:52:07;;;;;;;9.38;5.50;;;16.20;61.10;;;;;;4948910;28;20487;-64
2021/01/20 07:54:40;;;;;;;8.38;4.78;;;16.20;61.40;;;;;;4969788;28;20081;-63
2021/01/20 07:57:14;;;;;;;111.35;56.00;;;16.20;61.60;;;;;;4952522;28;20031;-65
2021/01/20 07:59:40;;;;;;;275.05;148.82;;;16.30;61.10;;;;;;4952621;28;20026;-65
2021/01/20 08:02:15;;;;;;;70.57;41.40;;;16.30;61.10;;;;;;4969334;28;20185;-62
2021/01/20 08:04:41;;;;;;;30.00;18.65;;;16.20;61.50;;;;;;4952479;28;20031;-63
2021/01/20 08:07:09;;;;;;;28.30;17.42;;;16.20;61.20;;;;;;4969787;28;20035;-61
2021/01/20 08:09:38;;;;;;;38.45;23.15;;;16.20;60.80;;;;;;4952427;28;20034;-62
2021/01/20 08:12:06;;;;;;;24.30;13.57;;;16.20;60.70;;;;;;4969248;28;20022;-62
2021/01/20 08:14:35;;;;;;;79.00;48.05;;;16.20;60.70;;;;;;4951946;28;20027;-61
2021/01/20 08:17:01;;;;;;;73.25;46.20;;;16.10;60.70;;;;;;4968826;28;20455;-61
2021/01/20 08:19:27;;;;;;;42.72;27.67;;;16.10;61.10;;;;;;4969320;28;20534;-62
2021/01/20 08:21:53;;;;;;;36.80;23.08;;;16.10;61.10;;;;;;4967397;28;20050;-60
2021/01/20 08:24:20;;;;;;;27.77;17.25;;;16.20;61.40;;;;;;4968053;28;20019;-63
2021/01/20 08:26:56;;;;;;;25.10;15.35;;;16.30;60.60;;;;;;4968288;28;20085;-64
2021/01/20 08:29:22;;;;;;;20.88;13.43;;;16.30;60.50;;;;;;4969375;28;20053;-61
2021/01/20 08:32:05;;;;;;;22.45;13.48;;;16.30;60.30;;;;;;4969049;28;20023;-63
2021/01/20 08:34:37;;;;;;;20.67;12.85;;;16.30;60.40;;;;;;4969370;28;20091;-62
2021/01/20 08:37:05;;;;;;;20.13;11.80;;;16.30;60.70;;;;;;4967818;28;20027;-65
2021/01/20 08:39:32;;;;;;;21.75;11.50;;;16.30;60.60;;;;;;4967718;28;20042;-61
2021/01/20 08:42:26;;;;;;;19.88;11.80;;;16.30;60.40;;;;;;4968906;28;20026;-61
2021/01/20 08:45:08;;;;;;;19.52;11.23;;;16.30;60.50;;;;;;4968985;28;20047;-62
2021/01/20 08:47:44;;;;;;;18.08;10.55;;;16.30;60.40;;;;;;4968922;28;20034;-62
2021/01/20 08:50:10;;;;;;;16.42;9.98;;;16.10;59.90;;;;;;4968903;28;20030;-61
2021/01/20 08:52:56;;;;;;;15.80;9.63;;;16.20;60.70;;;;;;4968564;28;20023;-64
2021/01/20 08:55:30;;;;;;;15.32;9.63;;;16.20;60.30;;;;;;4951218;28;20085;-62
2021/01/20 08:58:20;;;;;;;19.25;11.98;;;16.10;60.40;;;;;;4968914;28;20041;-61
2021/01/20 09:00:48;;;;;;;16.17;10.25;;;16.20;59.80;;;;;;4951074;28;20033;-62
2021/01/20 09:03:21;;;;;;;16.48;10.02;;;16.10;60.40;;;;;;4968252;28;20030;-61
2021/01/20 09:05:47;;;;;;;19.10;11.55;;;16.10;60.60;;;;;;4951555;28;20026;-61
2021/01/20 09:08:13;;;;;;;17.15;9.95;;;16.10;60.50;;;;;;4968654;28;20476;-62
2021/01/20 09:10:40;;;;;;;16.30;9.57;;;16.10;60.50;;;;;;4968779;28;20035;-63
2021/01/20 09:13:05;;;;;;;17.73;11.35;;;16.10;60.50;;;;;;4968531;28;20034;-63
2021/01/20 09:15:31;;;;;;;16.75;9.70;;;16.20;60.30;;;;;;4968556;28;20031;-62
2021/01/20 09:17:57;;;;;;;12.60;7.57;;;16.20;60.20;;;;;;4960263;28;20110;-62
2021/01/20 09:20:23;;;;;;;57.67;39.97;;;16.10;59.60;;;;;;4968790;28;20102;-62
2021/01/20 09:22:48;;;;;;;60.05;41.95;;;16.20;60.30;;;;;;4966414;28;20598;-62
2021/01/20 09:25:14;;;;;;;31.80;22.60;;;16.20;60.20;;;;;;4968916;28;20043;-66
2021/01/20 09:27:40;;;;;;;25.92;18.45;;;16.20;59.60;;;;;;4968592;28;20098;-61
2021/01/20 09:30:07;;;;;;;22.77;14.40;;;16.20;60.00;;;;;;4967222;28;20054;-62
2021/01/20 09:32:40;;;;;;;20.35;13.65;;;16.10;59.60;;;;;;4967905;28;20113;-65
2021/01/20 09:35:10;;;;;;;18.63;12.23;;;16.10;60.20;;;;;;4968505;28;20122;-61
2021/01/20 09:37:36;;;;;;;20.58;13.55;;;16.20;60.00;;;;;;4968410;28;20034;-61
2021/01/20 09:40:05;;;;;;;20.40;13.85;;;16.20;59.90;;;;;;4968259;28;20034;-64
2021/01/20 09:42:30;;;;;;;17.83;11.50;;;16.10;60.50;;;;;;4967795;28;20416;-65
2021/01/20 09:44:56;;;;;;;16.58;11.05;;;16.10;60.10;;;;;;4967944;28;20041;-61
2021/01/20 09:47:21;;;;;;;24.52;16.90;;;16.10;60.00;;;;;;4967759;28;20519;-62
2021/01/20 09:49:47;;;;;;;427.58;281.63;;;16.10;60.10;;;;;;4950558;28;20180;-62
2021/01/20 09:52:15;;;;;;;303.40;187.43;;;16.20;59.90;;;;;;4967909;28;20065;-62
2021/01/20 09:54:42;;;;;;;122.07;77.78;;;16.20;59.90;;;;;;4949975;28;20033;-63
2021/01/20 09:57:08;;;;;;;122.43;80.93;;;16.10;59.80;;;;;;4967966;28;20022;-63
2021/01/20 09:59:33;;;;;;;265.77;158.95;;;16.00;59.60;;;;;;4967876;28;20399;-62
2021/01/20 10:01:59;;;;;;;247.50;152.48;;;16.10;60.00;;;;;;4967301;28;20023;-63
2021/01/20 10:04:24;;;;;;;216.95;134.55;;;16.10;60.00;;;;;;4967543;28;20029;-62
2021/01/20 10:06:53;;;;;;;563.75;423.13;;;16.10;59.80;;;;;;4950174;28;20031;-62
2021/01/20 10:09:22;;;;;;;617.75;473.05;;;16.20;59.50;;;;;;4967498;28;20089;-62
2021/01/20 10:11:49;;;;;;;359.50;248.80;;;16.20;59.60;;;;;;4967091;28;20077;-61
2021/01/20 10:14:16;;;;;;;560.80;394.23;;;16.10;59.30;;;;;;4967413;28;20030;-61
2021/01/20 10:16:46;;;;;;;568.28;393.17;;;16.10;59.80;;;;;;4965731;28;20027;-64
2021/01/20 10:19:12;;;;;;;512.05;355.60;;;16.10;59.70;;;;;;4966649;28;20110;-62
2021/01/20 10:21:37;;;;;;;1069.18;708.67;;;16.10;59.70;;;;;;4947864;28;20030;-62
2021/01/20 10:24:03;;;;;;;857.05;613.85;;;16.20;59.60;;;;;;4967374;28;20033;-61
2021/01/20 10:26:28;;;;;;;726.72;539.22;;;16.20;60.00;;;;;;4967767;28;20400;-61
2021/01/20 10:28:54;;;;;;;478.85;329.85;;;16.00;60.10;;;;;;4967307;28;20066;-61
2021/01/20 10:31:19;;;;;;;274.25;174.07;;;15.90;60.90;;;;;;4949920;28;20485;-62
2021/01/20 10:33:45;;;;;;;326.75;212.15;;;15.80;61.90;;;;;;4966871;28;20038;-64
2021/01/20 10:36:10;;;;;;;260.02;166.93;;;15.80;62.00;;;;;;4967429;28;20543;-62
2021/01/20 10:38:36;;;;;;;266.67;169.00;;;15.70;62.00;;;;;;4949654;28;20125;-63
2021/01/20 10:41:01;;;;;;;250.63;160.40;;;15.80;62.20;;;;;;4949726;28;20121;-66
2021/01/20 10:43:27;;;;;;;203.15;133.48;;;15.90;62.10;;;;;;4967482;28;20030;-65
2021/01/20 10:45:52;;;;;;;211.85;137.60;;;15.90;62.10;;;;;;4966907;28;20042;-63
2021/01/20 10:48:18;;;;;;;200.25;131.68;;;15.90;62.20;;;;;;4949636;28;20109;-63
2021/01/20 10:50:43;;;;;;;200.43;130.32;;;16.00;61.90;;;;;;4967175;28;20027;-62
2021/01/20 10:53:09;;;;;;;202.50;132.55;;;16.10;62.10;;;;;;4967886;28;20042;-65
2021/01/20 10:55:34;;;;;;;196.73;130.77;;;16.20;62.00;;;;;;4935291;28;20027;-61
2021/01/20 10:58:00;;;;;;;184.60;126.03;;;16.20;61.70;;;;;;4966635;28;20054;-67
2021/01/20 11:00:26;;;;;;;114.82;77.13;;;16.30;61.90;;;;;;4988050;28;20030;-63
2021/01/20 11:02:51;;;;;;;136.75;92.65;;;16.40;63.60;;;;;;4968814;28;20030;-63
2021/01/20 11:05:17;;;;;;;135.55;93.32;;;16.40;62.40;;;;;;4986644;28;20034;-62
2021/01/20 11:07:42;;;;;;;124.00;84.95;;;16.50;61.60;;;;;;4958580;28;20031;-61
2021/01/20 11:10:09;;;;;;;135.02;94.63;;;16.50;60.10;;;;;;4967410;28;20031;-63
2021/01/20 11:12:34;;;;;;;135.23;92.82;;;16.50;60.20;;;;;;4966483;28;20038;-61
2021/01/20 11:15:00;;;;;;;152.70;109.05;;;16.60;60.30;;;;;;4967073;28;20030;-62
2021/01/20 11:17:26;;;;;;;109.38;77.15;;;16.60;59.60;;;;;;4966450;28;20030;-66
2021/01/20 11:19:52;;;;;;;127.50;87.43;;;16.70;59.10;;;;;;4964628;28;20026;-62
2021/01/20 11:22:17;;;;;;;127.93;91.05;;;16.80;58.80;;;;;;4966411;28;20175;-64
2021/01/20 11:24:43;;;;;;;139.60;101.53;;;16.80;58.90;;;;;;4966394;28;20026;-62
2021/01/20 11:27:08;;;;;;;110.93;78.50;;;16.90;58.70;;;;;;4965676;28;20041;-62
2021/01/20 11:29:34;;;;;;;111.93;78.65;;;16.90;58.20;;;;;;4964700;28;20038;-63
2021/01/20 11:31:59;;;;;;;113.13;78.82;;;16.90;57.60;;;;;;4966056;28;20031;-61
2021/01/20 11:34:25;;;;;;;113.40;78.97;;;17.00;57.60;;;;;;4966099;28;20025;-61
2021/01/20 11:36:50;;;;;;;61.30;42.58;;;17.00;57.60;;;;;;4966392;28;20062;-64
2021/01/20 11:39:16;;;;;;;94.05;68.78;;;17.00;57.40;;;;;;4966524;28;20070;-64
2021/01/20 11:41:41;;;;;;;79.32;57.28;;;17.10;57.20;;;;;;4966231;28;20660;-62
2021/01/20 11:44:07;;;;;;;63.88;46.35;;;17.10;57.30;;;;;;4966440;28;20046;-62
2021/01/20 11:46:32;;;;;;;70.60;51.50;;;17.10;57.00;;;;;;4966126;28;20046;-64
2021/01/20 11:49:07;;;;;;;65.13;47.30;;;17.20;56.40;;;;;;4966276;28;20042;-62
2021/01/20 11:51:36;;;;;;;53.35;38.58;;;17.20;56.90;;;;;;4948918;28;20022;-66
2021/01/20 11:54:02;;;;;;;68.80;48.85;;;17.20;56.10;;;;;;4948599;28;20448;-65
2021/01/20 11:56:27;;;;;;;69.13;50.60;;;17.30;56.20;;;;;;4966214;28;20030;-62
2021/01/20 11:58:53;;;;;;;65.40;47.95;;;17.40;56.10;;;;;;4966083;28;20027;-61
2021/01/20 12:01:22;;;;;;;57.85;41.72;;;17.40;56.90;;;;;;4948334;28;20027;-61
2021/01/20 12:03:48;;;;;;;56.10;42.13;;;17.40;56.30;;;;;;4965894;28;20086;-63
2021/01/20 12:06:14;;;;;;;51.30;36.55;;;17.50;56.10;;;;;;4966393;28;20400;-61
2021/01/20 12:08:39;;;;;;;38.10;26.70;;;17.50;56.30;;;;;;4965932;28;20033;-64
2021/01/20 12:11:05;;;;;;;41.17;28.83;;;17.50;55.40;;;;;;4965981;28;20027;-63
2021/01/20 12:13:30;;;;;;;58.67;42.97;;;17.50;55.40;;;;;;4965879;28;20031;-62
2021/01/20 12:15:56;;;;;;;49.05;36.28;;;17.50;55.80;;;;;;4948222;28;20050;-62
2021/01/20 12:18:21;;;;;;;39.85;29.08;;;17.60;56.00;;;;;;4965279;28;20093;-61
2021/01/20 12:20:47;;;;;;;73.88;53.15;;;17.50;55.80;;;;;;4965529;28;20042;-62
2021/01/20 12:23:12;;;;;;;52.15;38.85;;;17.60;55.40;;;;;;4965514;28;20027;-63
2021/01/20 12:25:38;;;;;;;72.28;50.38;;;17.60;54.90;;;;;;4964235;28;20031;-63
2021/01/20 12:28:03;;;;;;;35.15;25.63;;;17.50;55.20;;;;;;4965422;28;20382;-62
2021/01/20 12:30:29;;;;;;;37.45;26.42;;;17.60;55.00;;;;;;4963955;28;20030;-62
2021/01/20 12:32:54;;;;;;;43.70;31.35;;;17.60;55.50;;;;;;4965149;28;20073;-62
2021/01/20 12:35:20;;;;;;;41.13;30.58;;;17.70;55.10;;;;;;4965494;28;20031;-63
2021/01/20 12:37:46;;;;;;;38.95;29.85;;;17.60;54.30;;;;;;4966261;28;20500;-63